Aviation Digital Data Service (ADDS)

Output produced by METARs form (1036 UTC 19 February 2019)
found at http://www.aviationweather.gov/metar/data/
 
Forecast for: LIED (DECIMOMANNU(IT-A, IT)
Text: TAF LIED 190800Z 1909/1918 31005KT 9999 FEW030
Forecast period: 0900 to 1000 UTC 19 February 2019
Forecast type: FROM: standard forecast or significant change
Winds: from the NW (310 degrees) at 6 MPH (5 knots; 2.6 m/s)
Visibility: 6 or more miles 10+ km)
Ceiling: at least 12,000 feet AGL
Clouds: few clouds at 3000 feet AGL
Weather: no significant weather forecast for this period
Text: BECMG 1910/1912 15010KT
Forecast period: 1000 to 1800 UTC 19 February 2019
Forecast type: BECOMING: Conditions expected to become as follows by 1200 UTC 19 February 2019
Winds: from the SSE (150 degrees) at 12 MPH (10 knots; 5.1 m/s)
Visibility: 6 or more miles 10+ km)
Ceiling: at least 12,000 feet AGL
Clouds: few clouds at 3000 feet AGL
Weather: no significant weather forecast for this period